sensor_id;sensor_type;location;lat;lon;timestamp;P1;durP1;ratioP1;P2;durP2;ratioP2
8421;SDS011;4248;48.196;10.924;2023-05-14T00:01:17;23.80;;;13.60;;
8421;SDS011;4248;48.196;10.924;2023-05-14T00:03:42;23.93;;;13.10;;
8421;SDS011;4248;48.196;10.924;2023-05-14T00:06:08;23.63;;;14.50;;
8421;SDS011;4248;48.196;10.924;2023-05-14T00:08:34;27.70;;;14.30;;
8421;SDS011;4248;48.196;10.924;2023-05-14T00:11:00;27.80;;;15.20;;
8421;SDS011;4248;48.196;10.924;2023-05-14T00:13:26;22.37;;;14.60;;
8421;SDS011;4248;48.196;10.924;2023-05-14T00:15:51;23.10;;;15.27;;
8421;SDS011;4248;48.196;10.924;2023-05-14T00:18:17;23.17;;;15.53;;
8421;SDS011;4248;48.196;10.924;2023-05-14T00:20:43;22.17;;;14.80;;
8421;SDS011;4248;48.196;10.924;2023-05-14T00:23:08;24.03;;;15.07;;
8421;SDS011;4248;48.196;10.924;2023-05-14T00:25:34;24.23;;;14.80;;
8421;SDS011;4248;48.196;10.924;2023-05-14T00:28:00;21.47;;;15.23;;
8421;SDS011;4248;48.196;10.924;2023-05-14T00:30:26;24.60;;;15.53;;
8421;SDS011;4248;48.196;10.924;2023-05-14T00:32:52;24.80;;;16.00;;
8421;SDS011;4248;48.196;10.924;2023-05-14T00:35:17;22.37;;;14.43;;
8421;SDS011;4248;48.196;10.924;2023-05-14T00:37:45;33.53;;;15.30;;
8421;SDS011;4248;48.196;10.924;2023-05-14T00:40:11;23.97;;;14.70;;
8421;SDS011;4248;48.196;10.924;2023-05-14T00:42:38;24.97;;;15.30;;
8421;SDS011;4248;48.196;10.924;2023-05-14T00:45:04;22.17;;;15.20;;
8421;SDS011;4248;48.196;10.924;2023-05-14T00:47:31;21.30;;;15.40;;
8421;SDS011;4248;48.196;10.924;2023-05-14T00:49:58;22.80;;;14.10;;
8421;SDS011;4248;48.196;10.924;2023-05-14T00:52:24;22.93;;;14.13;;
8421;SDS011;4248;48.196;10.924;2023-05-14T00:54:50;25.17;;;15.00;;
8421;SDS011;4248;48.196;10.924;2023-05-14T00:57:16;21.77;;;15.23;;
8421;SDS011;4248;48.196;10.924;2023-05-14T00:59:42;23.67;;;14.17;;
8421;SDS011;4248;48.196;10.924;2023-05-14T01:02:08;21.30;;;14.00;;
8421;SDS011;4248;48.196;10.924;2023-05-14T01:04:34;21.67;;;13.57;;
8421;SDS011;4248;48.196;10.924;2023-05-14T01:15:09;26.60;;;14.57;;
8421;SDS011;4248;48.196;10.924;2023-05-14T01:17:40;22.10;;;14.97;;
8421;SDS011;4248;48.196;10.924;2023-05-14T01:20:09;22.83;;;15.63;;
8421;SDS011;4248;48.196;10.924;2023-05-14T01:22:36;23.47;;;15.17;;
8421;SDS011;4248;48.196;10.924;2023-05-14T01:25:01;23.90;;;16.00;;
8421;SDS011;4248;48.196;10.924;2023-05-14T01:27:34;24.17;;;15.53;;
8421;SDS011;4248;48.196;10.924;2023-05-14T01:32:47;24.77;;;15.50;;
8421;SDS011;4248;48.196;10.924;2023-05-14T01:35:18;25.40;;;15.33;;
8421;SDS011;4248;48.196;10.924;2023-05-14T01:37:46;21.50;;;14.47;;
8421;SDS011;4248;48.196;10.924;2023-05-14T01:40:12;32.30;;;16.03;;
8421;SDS011;4248;48.196;10.924;2023-05-14T01:42:38;27.33;;;16.43;;
8421;SDS011;4248;48.196;10.924;2023-05-14T01:45:05;25.20;;;15.73;;
8421;SDS011;4248;48.196;10.924;2023-05-14T01:47:31;26.50;;;15.80;;
8421;SDS011;4248;48.196;10.924;2023-05-14T01:49:57;23.90;;;15.77;;
8421;SDS011;4248;48.196;10.924;2023-05-14T01:52:22;22.30;;;15.27;;
8421;SDS011;4248;48.196;10.924;2023-05-14T01:54:48;25.20;;;15.90;;
8421;SDS011;4248;48.196;10.924;2023-05-14T01:57:14;23.20;;;16.57;;
8421;SDS011;4248;48.196;10.924;2023-05-14T01:59:39;25.57;;;16.90;;
8421;SDS011;4248;48.196;10.924;2023-05-14T02:02:05;22.87;;;15.87;;
8421;SDS011;4248;48.196;10.924;2023-05-14T02:04:30;26.37;;;16.00;;
8421;SDS011;4248;48.196;10.924;2023-05-14T02:06:56;24.33;;;15.80;;
8421;SDS011;4248;48.196;10.924;2023-05-14T02:09:21;27.60;;;15.90;;
8421;SDS011;4248;48.196;10.924;2023-05-14T02:11:47;22.57;;;15.50;;
8421;SDS011;4248;48.196;10.924;2023-05-14T02:14:13;24.37;;;15.40;;
8421;SDS011;4248;48.196;10.924;2023-05-14T02:16:39;25.70;;;16.47;;
8421;SDS011;4248;48.196;10.924;2023-05-14T02:19:05;25.23;;;15.50;;
8421;SDS011;4248;48.196;10.924;2023-05-14T02:21:31;26.67;;;15.87;;
8421;SDS011;4248;48.196;10.924;2023-05-14T02:23:56;25.27;;;16.23;;
8421;SDS011;4248;48.196;10.924;2023-05-14T02:26:22;31.70;;;16.80;;
8421;SDS011;4248;48.196;10.924;2023-05-14T02:28:47;29.90;;;16.90;;
8421;SDS011;4248;48.196;10.924;2023-05-14T02:31:13;28.57;;;16.10;;
8421;SDS011;4248;48.196;10.924;2023-05-14T02:33:39;27.43;;;16.23;;
8421;SDS011;4248;48.196;10.924;2023-05-14T02:36:04;24.70;;;16.10;;
8421;SDS011;4248;48.196;10.924;2023-05-14T02:38:30;25.80;;;15.87;;
8421;SDS011;4248;48.196;10.924;2023-05-14T02:40:56;31.20;;;16.97;;
8421;SDS011;4248;48.196;10.924;2023-05-14T02:43:21;24.60;;;16.50;;
8421;SDS011;4248;48.196;10.924;2023-05-14T02:45:47;28.63;;;16.47;;
8421;SDS011;4248;48.196;10.924;2023-05-14T02:48:13;24.93;;;15.50;;
8421;SDS011;4248;48.196;10.924;2023-05-14T02:50:38;32.30;;;17.00;;
8421;SDS011;4248;48.196;10.924;2023-05-14T02:53:04;23.00;;;15.40;;
8421;SDS011;4248;48.196;10.924;2023-05-14T02:55:29;28.33;;;16.53;;
8421;SDS011;4248;48.196;10.924;2023-05-14T02:57:55;27.20;;;16.40;;
8421;SDS011;4248;48.196;10.924;2023-05-14T03:00:21;26.13;;;16.33;;
8421;SDS011;4248;48.196;10.924;2023-05-14T03:02:46;28.80;;;17.00;;
8421;SDS011;4248;48.196;10.924;2023-05-14T03:05:12;36.17;;;17.43;;
8421;SDS011;4248;48.196;10.924;2023-05-14T03:07:38;28.70;;;17.00;;
8421;SDS011;4248;48.196;10.924;2023-05-14T03:10:04;32.20;;;17.07;;
8421;SDS011;4248;48.196;10.924;2023-05-14T03:12:30;32.17;;;16.70;;
8421;SDS011;4248;48.196;10.924;2023-05-14T03:14:55;24.40;;;15.73;;
8421;SDS011;4248;48.196;10.924;2023-05-14T03:17:21;26.40;;;17.20;;
8421;SDS011;4248;48.196;10.924;2023-05-14T03:19:47;33.83;;;18.50;;
8421;SDS011;4248;48.196;10.924;2023-05-14T03:22:12;27.33;;;15.70;;
8421;SDS011;4248;48.196;10.924;2023-05-14T03:24:38;28.50;;;17.00;;
8421;SDS011;4248;48.196;10.924;2023-05-14T03:27:04;25.63;;;15.70;;
8421;SDS011;4248;48.196;10.924;2023-05-14T03:29:30;24.70;;;15.63;;
8421;SDS011;4248;48.196;10.924;2023-05-14T03:31:56;24.07;;;15.60;;
8421;SDS011;4248;48.196;10.924;2023-05-14T03:34:22;31.70;;;16.90;;
8421;SDS011;4248;48.196;10.924;2023-05-14T03:36:48;26.37;;;16.93;;
8421;SDS011;4248;48.196;10.924;2023-05-14T03:39:14;27.73;;;16.47;;
8421;SDS011;4248;48.196;10.924;2023-05-14T03:41:43;25.50;;;15.80;;
8421;SDS011;4248;48.196;10.924;2023-05-14T03:44:10;27.10;;;15.33;;
8421;SDS011;4248;48.196;10.924;2023-05-14T03:46:35;28.60;;;16.87;;
8421;SDS011;4248;48.196;10.924;2023-05-14T03:49:01;26.93;;;16.60;;
8421;SDS011;4248;48.196;10.924;2023-05-14T03:51:27;27.80;;;16.50;;
8421;SDS011;4248;48.196;10.924;2023-05-14T03:53:52;26.40;;;16.93;;
8421;SDS011;4248;48.196;10.924;2023-05-14T03:56:18;31.07;;;17.10;;
8421;SDS011;4248;48.196;10.924;2023-05-14T03:58:43;24.10;;;16.17;;
8421;SDS011;4248;48.196;10.924;2023-05-14T04:01:09;36.10;;;17.33;;
8421;SDS011;4248;48.196;10.924;2023-05-14T04:03:35;32.70;;;19.27;;
8421;SDS011;4248;48.196;10.924;2023-05-14T04:06:00;33.47;;;19.83;;
8421;SDS011;4248;48.196;10.924;2023-05-14T04:08:26;29.70;;;18.73;;
8421;SDS011;4248;48.196;10.924;2023-05-14T04:10:51;32.43;;;18.37;;
8421;SDS011;4248;48.196;10.924;2023-05-14T04:13:17;29.80;;;17.00;;
8421;SDS011;4248;48.196;10.924;2023-05-14T04:15:43;29.70;;;18.43;;
8421;SDS011;4248;48.196;10.924;2023-05-14T04:18:08;29.17;;;16.73;;
8421;SDS011;4248;48.196;10.924;2023-05-14T04:20:34;29.93;;;16.80;;
8421;SDS011;4248;48.196;10.924;2023-05-14T04:23:00;27.27;;;17.43;;
8421;SDS011;4248;48.196;10.924;2023-05-14T04:25:26;28.10;;;17.87;;
8421;SDS011;4248;48.196;10.924;2023-05-14T04:27:52;29.90;;;19.13;;
8421;SDS011;4248;48.196;10.924;2023-05-14T04:30:18;26.93;;;16.37;;
8421;SDS011;4248;48.196;10.924;2023-05-14T04:32:43;25.03;;;15.80;;
8421;SDS011;4248;48.196;10.924;2023-05-14T04:35:09;23.23;;;15.90;;
8421;SDS011;4248;48.196;10.924;2023-05-14T04:37:35;24.33;;;15.93;;
8421;SDS011;4248;48.196;10.924;2023-05-14T04:40:01;26.93;;;16.67;;
8421;SDS011;4248;48.196;10.924;2023-05-14T04:42:26;26.20;;;15.67;;
8421;SDS011;4248;48.196;10.924;2023-05-14T04:44:52;26.83;;;16.67;;
8421;SDS011;4248;48.196;10.924;2023-05-14T04:47:17;26.43;;;16.00;;
8421;SDS011;4248;48.196;10.924;2023-05-14T04:49:44;27.90;;;17.37;;
8421;SDS011;4248;48.196;10.924;2023-05-14T04:52:10;26.90;;;16.90;;
8421;SDS011;4248;48.196;10.924;2023-05-14T04:54:36;29.63;;;16.73;;
8421;SDS011;4248;48.196;10.924;2023-05-14T04:57:01;27.40;;;16.87;;
8421;SDS011;4248;48.196;10.924;2023-05-14T04:59:30;27.00;;;16.73;;
8421;SDS011;4248;48.196;10.924;2023-05-14T05:01:56;27.73;;;16.63;;
8421;SDS011;4248;48.196;10.924;2023-05-14T05:04:22;25.57;;;15.97;;
8421;SDS011;4248;48.196;10.924;2023-05-14T05:06:48;29.63;;;17.17;;
8421;SDS011;4248;48.196;10.924;2023-05-14T05:09:14;28.70;;;17.70;;
8421;SDS011;4248;48.196;10.924;2023-05-14T05:11:41;26.20;;;16.00;;
8421;SDS011;4248;48.196;10.924;2023-05-14T05:14:07;26.70;;;16.87;;
8421;SDS011;4248;48.196;10.924;2023-05-14T05:16:32;28.20;;;16.27;;
8421;SDS011;4248;48.196;10.924;2023-05-14T05:18:58;29.90;;;15.93;;
8421;SDS011;4248;48.196;10.924;2023-05-14T05:21:23;25.10;;;15.10;;
8421;SDS011;4248;48.196;10.924;2023-05-14T05:23:49;26.10;;;15.80;;
8421;SDS011;4248;48.196;10.924;2023-05-14T05:26:15;25.30;;;14.00;;
8421;SDS011;4248;48.196;10.924;2023-05-14T05:28:40;26.50;;;15.67;;
8421;SDS011;4248;48.196;10.924;2023-05-14T05:31:06;21.90;;;15.23;;
8421;SDS011;4248;48.196;10.924;2023-05-14T05:33:32;26.60;;;15.60;;
8421;SDS011;4248;48.196;10.924;2023-05-14T05:35:58;22.23;;;14.67;;
8421;SDS011;4248;48.196;10.924;2023-05-14T05:38:24;30.77;;;15.53;;
8421;SDS011;4248;48.196;10.924;2023-05-14T05:40:52;23.93;;;14.37;;
8421;SDS011;4248;48.196;10.924;2023-05-14T05:43:18;19.83;;;13.40;;
8421;SDS011;4248;48.196;10.924;2023-05-14T05:45:43;21.43;;;14.27;;
8421;SDS011;4248;48.196;10.924;2023-05-14T05:48:10;19.07;;;13.17;;
8421;SDS011;4248;48.196;10.924;2023-05-14T05:50:37;22.90;;;14.50;;
8421;SDS011;4248;48.196;10.924;2023-05-14T05:53:03;22.73;;;13.57;;
8421;SDS011;4248;48.196;10.924;2023-05-14T05:55:33;23.40;;;14.80;;
8421;SDS011;4248;48.196;10.924;2023-05-14T05:58:04;24.73;;;14.23;;
8421;SDS011;4248;48.196;10.924;2023-05-14T06:00:30;24.50;;;13.63;;
8421;SDS011;4248;48.196;10.924;2023-05-14T06:02:57;20.07;;;12.87;;
8421;SDS011;4248;48.196;10.924;2023-05-14T06:05:24;23.27;;;13.37;;
8421;SDS011;4248;48.196;10.924;2023-05-14T06:07:51;24.90;;;14.60;;
8421;SDS011;4248;48.196;10.924;2023-05-14T06:10:23;22.83;;;13.80;;
8421;SDS011;4248;48.196;10.924;2023-05-14T06:13:06;18.37;;;12.30;;
8421;SDS011;4248;48.196;10.924;2023-05-14T06:15:51;25.10;;;15.20;;
8421;SDS011;4248;48.196;10.924;2023-05-14T06:18:26;22.67;;;14.83;;
8421;SDS011;4248;48.196;10.924;2023-05-14T06:21:00;22.73;;;13.10;;
8421;SDS011;4248;48.196;10.924;2023-05-14T06:23:35;25.23;;;15.23;;
8421;SDS011;4248;48.196;10.924;2023-05-14T06:26:10;22.80;;;13.50;;
8421;SDS011;4248;48.196;10.924;2023-05-14T06:28:51;25.10;;;13.20;;
8421;SDS011;4248;48.196;10.924;2023-05-14T06:31:17;21.30;;;14.20;;
8421;SDS011;4248;48.196;10.924;2023-05-14T06:33:43;26.23;;;13.43;;
8421;SDS011;4248;48.196;10.924;2023-05-14T06:36:10;28.50;;;14.23;;
8421;SDS011;4248;48.196;10.924;2023-05-14T06:38:36;22.27;;;13.97;;
8421;SDS011;4248;48.196;10.924;2023-05-14T06:41:02;25.30;;;15.27;;
8421;SDS011;4248;48.196;10.924;2023-05-14T06:43:32;21.10;;;12.90;;
8421;SDS011;4248;48.196;10.924;2023-05-14T06:46:00;22.87;;;13.17;;
8421;SDS011;4248;48.196;10.924;2023-05-14T06:48:29;24.10;;;13.20;;
8421;SDS011;4248;48.196;10.924;2023-05-14T06:50:55;23.47;;;13.67;;
8421;SDS011;4248;48.196;10.924;2023-05-14T06:53:21;23.70;;;15.07;;
8421;SDS011;4248;48.196;10.924;2023-05-14T06:55:51;24.43;;;13.73;;
8421;SDS011;4248;48.196;10.924;2023-05-14T06:58:29;24.00;;;13.40;;
8421;SDS011;4248;48.196;10.924;2023-05-14T07:00:56;21.13;;;12.00;;
8421;SDS011;4248;48.196;10.924;2023-05-14T07:03:27;24.70;;;13.37;;
8421;SDS011;4248;48.196;10.924;2023-05-14T07:05:56;25.67;;;14.93;;
8421;SDS011;4248;48.196;10.924;2023-05-14T07:08:37;23.40;;;13.67;;
8421;SDS011;4248;48.196;10.924;2023-05-14T07:11:09;23.97;;;14.80;;
8421;SDS011;4248;48.196;10.924;2023-05-14T07:13:57;24.20;;;14.03;;
8421;SDS011;4248;48.196;10.924;2023-05-14T07:16:23;23.03;;;12.70;;
8421;SDS011;4248;48.196;10.924;2023-05-14T07:18:49;23.20;;;13.60;;
8421;SDS011;4248;48.196;10.924;2023-05-14T07:21:15;21.17;;;13.33;;
8421;SDS011;4248;48.196;10.924;2023-05-14T07:23:46;24.23;;;11.33;;
8421;SDS011;4248;48.196;10.924;2023-05-14T07:26:26;22.83;;;13.13;;
8421;SDS011;4248;48.196;10.924;2023-05-14T07:28:54;23.20;;;13.00;;
8421;SDS011;4248;48.196;10.924;2023-05-14T07:31:27;22.13;;;14.03;;
8421;SDS011;4248;48.196;10.924;2023-05-14T07:33:53;24.57;;;14.53;;
8421;SDS011;4248;48.196;10.924;2023-05-14T07:36:20;19.87;;;12.57;;
8421;SDS011;4248;48.196;10.924;2023-05-14T07:38:47;18.70;;;11.83;;
8421;SDS011;4248;48.196;10.924;2023-05-14T07:41:13;22.33;;;13.10;;
8421;SDS011;4248;48.196;10.924;2023-05-14T07:43:41;23.80;;;13.83;;
8421;SDS011;4248;48.196;10.924;2023-05-14T07:46:10;24.10;;;12.60;;
8421;SDS011;4248;48.196;10.924;2023-05-14T07:48:36;21.87;;;12.73;;
8421;SDS011;4248;48.196;10.924;2023-05-14T07:51:01;20.77;;;13.70;;
8421;SDS011;4248;48.196;10.924;2023-05-14T07:53:27;20.20;;;12.00;;
8421;SDS011;4248;48.196;10.924;2023-05-14T07:55:53;17.80;;;11.83;;
8421;SDS011;4248;48.196;10.924;2023-05-14T07:58:19;20.30;;;11.70;;
8421;SDS011;4248;48.196;10.924;2023-05-14T08:00:45;20.50;;;11.90;;
8421;SDS011;4248;48.196;10.924;2023-05-14T08:03:12;20.03;;;12.30;;
8421;SDS011;4248;48.196;10.924;2023-05-14T08:05:38;16.97;;;10.17;;
8421;SDS011;4248;48.196;10.924;2023-05-14T08:08:06;16.63;;;10.03;;
8421;SDS011;4248;48.196;10.924;2023-05-14T08:10:32;18.77;;;9.97;;
8421;SDS011;4248;48.196;10.924;2023-05-14T08:12:58;15.63;;;9.53;;
8421;SDS011;4248;48.196;10.924;2023-05-14T08:15:23;13.97;;;8.60;;
8421;SDS011;4248;48.196;10.924;2023-05-14T08:17:49;13.10;;;7.80;;
8421;SDS011;4248;48.196;10.924;2023-05-14T08:20:14;14.90;;;8.40;;
8421;SDS011;4248;48.196;10.924;2023-05-14T08:22:40;20.30;;;10.50;;
8421;SDS011;4248;48.196;10.924;2023-05-14T08:25:06;21.43;;;10.63;;
8421;SDS011;4248;48.196;10.924;2023-05-14T08:27:32;16.53;;;11.70;;
8421;SDS011;4248;48.196;10.924;2023-05-14T08:29:57;20.67;;;11.83;;
8421;SDS011;4248;48.196;10.924;2023-05-14T08:32:23;18.87;;;10.27;;
8421;SDS011;4248;48.196;10.924;2023-05-14T08:34:49;15.23;;;10.03;;
8421;SDS011;4248;48.196;10.924;2023-05-14T08:37:15;15.90;;;10.00;;
8421;SDS011;4248;48.196;10.924;2023-05-14T08:39:41;13.33;;;8.90;;
8421;SDS011;4248;48.196;10.924;2023-05-14T08:42:06;15.00;;;9.13;;
8421;SDS011;4248;48.196;10.924;2023-05-14T08:47:17;14.50;;;8.50;;
8421;SDS011;4248;48.196;10.924;2023-05-14T08:49:45;11.93;;;8.53;;
8421;SDS011;4248;48.196;10.924;2023-05-14T08:52:13;15.83;;;9.80;;
8421;SDS011;4248;48.196;10.924;2023-05-14T08:54:42;16.40;;;10.40;;
8421;SDS011;4248;48.196;10.924;2023-05-14T08:57:08;19.23;;;12.20;;
8421;SDS011;4248;48.196;10.924;2023-05-14T08:59:35;20.10;;;12.80;;
8421;SDS011;4248;48.196;10.924;2023-05-14T09:02:01;19.23;;;11.50;;
8421;SDS011;4248;48.196;10.924;2023-05-14T09:04:29;19.43;;;12.40;;
8421;SDS011;4248;48.196;10.924;2023-05-14T09:06:56;21.70;;;13.73;;
8421;SDS011;4248;48.196;10.924;2023-05-14T09:09:23;23.43;;;14.27;;
8421;SDS011;4248;48.196;10.924;2023-05-14T09:11:50;23.20;;;13.97;;
8421;SDS011;4248;48.196;10.924;2023-05-14T09:14:17;21.17;;;13.13;;
8421;SDS011;4248;48.196;10.924;2023-05-14T09:16:46;19.30;;;13.30;;
8421;SDS011;4248;48.196;10.924;2023-05-14T09:19:13;23.30;;;13.97;;
8421;SDS011;4248;48.196;10.924;2023-05-14T09:21:40;25.03;;;14.63;;
8421;SDS011;4248;48.196;10.924;2023-05-14T09:24:06;22.90;;;12.77;;
8421;SDS011;4248;48.196;10.924;2023-05-14T09:26:32;21.30;;;14.33;;
8421;SDS011;4248;48.196;10.924;2023-05-14T09:28:59;18.93;;;12.40;;
8421;SDS011;4248;48.196;10.924;2023-05-14T09:31:29;22.13;;;13.10;;
8421;SDS011;4248;48.196;10.924;2023-05-14T09:33:56;22.03;;;14.00;;
8421;SDS011;4248;48.196;10.924;2023-05-14T09:36:22;16.83;;;11.60;;
8421;SDS011;4248;48.196;10.924;2023-05-14T09:38:51;17.47;;;11.30;;
8421;SDS011;4248;48.196;10.924;2023-05-14T09:41:20;17.33;;;11.73;;
8421;SDS011;4248;48.196;10.924;2023-05-14T09:43:46;16.60;;;11.07;;
8421;SDS011;4248;48.196;10.924;2023-05-14T09:46:12;17.87;;;11.53;;
8421;SDS011;4248;48.196;10.924;2023-05-14T09:48:38;13.70;;;10.17;;
8421;SDS011;4248;48.196;10.924;2023-05-14T09:51:04;15.53;;;9.90;;
8421;SDS011;4248;48.196;10.924;2023-05-14T09:53:30;17.20;;;10.97;;
8421;SDS011;4248;48.196;10.924;2023-05-14T09:55:58;16.33;;;10.80;;
8421;SDS011;4248;48.196;10.924;2023-05-14T09:58:23;14.13;;;10.83;;
8421;SDS011;4248;48.196;10.924;2023-05-14T10:00:49;16.10;;;11.20;;
8421;SDS011;4248;48.196;10.924;2023-05-14T10:03:15;16.23;;;10.60;;
8421;SDS011;4248;48.196;10.924;2023-05-14T10:05:44;20.70;;;11.60;;
8421;SDS011;4248;48.196;10.924;2023-05-14T10:08:13;14.60;;;9.93;;
8421;SDS011;4248;48.196;10.924;2023-05-14T10:10:45;16.93;;;11.40;;
8421;SDS011;4248;48.196;10.924;2023-05-14T10:13:15;15.30;;;10.70;;
8421;SDS011;4248;48.196;10.924;2023-05-14T10:18:21;17.23;;;9.57;;
8421;SDS011;4248;48.196;10.924;2023-05-14T10:20:50;14.23;;;10.10;;
8421;SDS011;4248;48.196;10.924;2023-05-14T10:23:29;14.70;;;10.13;;
8421;SDS011;4248;48.196;10.924;2023-05-14T10:25:56;12.57;;;9.23;;
8421;SDS011;4248;48.196;10.924;2023-05-14T10:28:22;12.53;;;9.23;;
8421;SDS011;4248;48.196;10.924;2023-05-14T10:30:48;13.50;;;9.20;;
8421;SDS011;4248;48.196;10.924;2023-05-14T10:33:14;13.60;;;9.87;;
8421;SDS011;4248;48.196;10.924;2023-05-14T10:40:54;11.90;;;8.57;;
8421;SDS011;4248;48.196;10.924;2023-05-14T10:43:25;11.70;;;8.60;;
8421;SDS011;4248;48.196;10.924;2023-05-14T10:45:56;10.87;;;7.87;;
8421;SDS011;4248;48.196;10.924;2023-05-14T10:48:22;14.07;;;10.00;;
8421;SDS011;4248;48.196;10.924;2023-05-14T10:50:49;12.87;;;8.20;;
8421;SDS011;4248;48.196;10.924;2023-05-14T10:53:16;12.33;;;8.37;;
8421;SDS011;4248;48.196;10.924;2023-05-14T10:55:41;13.77;;;8.50;;
8421;SDS011;4248;48.196;10.924;2023-05-14T10:58:08;10.93;;;8.27;;
8421;SDS011;4248;48.196;10.924;2023-05-14T11:00:35;10.70;;;8.07;;
8421;SDS011;4248;48.196;10.924;2023-05-14T11:03:05;10.67;;;7.30;;
8421;SDS011;4248;48.196;10.924;2023-05-14T11:05:31;13.33;;;8.80;;
8421;SDS011;4248;48.196;10.924;2023-05-14T11:08:01;10.03;;;7.70;;
8421;SDS011;4248;48.196;10.924;2023-05-14T11:10:30;11.13;;;8.00;;
8421;SDS011;4248;48.196;10.924;2023-05-14T11:12:56;11.60;;;8.27;;
8421;SDS011;4248;48.196;10.924;2023-05-14T11:15:23;13.57;;;8.93;;
8421;SDS011;4248;48.196;10.924;2023-05-14T11:17:50;12.50;;;8.00;;
8421;SDS011;4248;48.196;10.924;2023-05-14T11:20:17;9.60;;;7.13;;
8421;SDS011;4248;48.196;10.924;2023-05-14T11:22:44;15.30;;;9.77;;
8421;SDS011;4248;48.196;10.924;2023-05-14T11:25:12;11.30;;;8.17;;
8421;SDS011;4248;48.196;10.924;2023-05-14T11:27:38;11.77;;;8.40;;
8421;SDS011;4248;48.196;10.924;2023-05-14T11:30:18;11.37;;;8.10;;
8421;SDS011;4248;48.196;10.924;2023-05-14T11:32:44;12.27;;;8.33;;
8421;SDS011;4248;48.196;10.924;2023-05-14T11:35:11;10.63;;;8.20;;
8421;SDS011;4248;48.196;10.924;2023-05-14T11:37:38;12.03;;;7.83;;
8421;SDS011;4248;48.196;10.924;2023-05-14T11:40:05;12.03;;;7.87;;
8421;SDS011;4248;48.196;10.924;2023-05-14T11:42:33;10.70;;;7.30;;
8421;SDS011;4248;48.196;10.924;2023-05-14T11:45:01;11.70;;;8.27;;
8421;SDS011;4248;48.196;10.924;2023-05-14T11:47:27;11.90;;;8.40;;
8421;SDS011;4248;48.196;10.924;2023-05-14T11:49:53;11.33;;;6.90;;
8421;SDS011;4248;48.196;10.924;2023-05-14T11:52:19;11.80;;;7.13;;
8421;SDS011;4248;48.196;10.924;2023-05-14T11:54:46;11.13;;;7.10;;
8421;SDS011;4248;48.196;10.924;2023-05-14T11:57:19;8.17;;;6.17;;
8421;SDS011;4248;48.196;10.924;2023-05-14T11:59:53;9.77;;;7.20;;
8421;SDS011;4248;48.196;10.924;2023-05-14T12:02:23;10.17;;;6.63;;
8421;SDS011;4248;48.196;10.924;2023-05-14T12:04:52;7.27;;;5.90;;
8421;SDS011;4248;48.196;10.924;2023-05-14T12:07:17;11.53;;;5.97;;
8421;SDS011;4248;48.196;10.924;2023-05-14T12:09:44;10.10;;;6.37;;
8421;SDS011;4248;48.196;10.924;2023-05-14T12:12:15;8.40;;;5.70;;
8421;SDS011;4248;48.196;10.924;2023-05-14T12:14:42;14.30;;;9.07;;
8421;SDS011;4248;48.196;10.924;2023-05-14T12:17:12;10.90;;;6.70;;
8421;SDS011;4248;48.196;10.924;2023-05-14T12:19:43;9.17;;;7.30;;
8421;SDS011;4248;48.196;10.924;2023-05-14T12:22:11;10.13;;;6.50;;
8421;SDS011;4248;48.196;10.924;2023-05-14T12:24:39;9.87;;;7.03;;
8421;SDS011;4248;48.196;10.924;2023-05-14T12:27:05;9.90;;;7.13;;
8421;SDS011;4248;48.196;10.924;2023-05-14T12:29:34;6.60;;;5.30;;
8421;SDS011;4248;48.196;10.924;2023-05-14T12:32:01;9.00;;;5.50;;
8421;SDS011;4248;48.196;10.924;2023-05-14T12:34:32;8.97;;;4.97;;
8421;SDS011;4248;48.196;10.924;2023-05-14T12:36:58;8.00;;;5.30;;
8421;SDS011;4248;48.196;10.924;2023-05-14T12:39:23;9.33;;;6.00;;
8421;SDS011;4248;48.196;10.924;2023-05-14T12:41:49;7.13;;;5.40;;
8421;SDS011;4248;48.196;10.924;2023-05-14T12:44:14;9.40;;;5.83;;
8421;SDS011;4248;48.196;10.924;2023-05-14T12:46:40;8.37;;;5.73;;
8421;SDS011;4248;48.196;10.924;2023-05-14T12:49:06;9.63;;;5.87;;
8421;SDS011;4248;48.196;10.924;2023-05-14T12:51:32;7.90;;;5.80;;
8421;SDS011;4248;48.196;10.924;2023-05-14T12:53:58;7.80;;;5.53;;
8421;SDS011;4248;48.196;10.924;2023-05-14T12:56:23;7.80;;;5.73;;
8421;SDS011;4248;48.196;10.924;2023-05-14T12:58:53;8.20;;;5.67;;
8421;SDS011;4248;48.196;10.924;2023-05-14T13:01:19;8.00;;;5.93;;
8421;SDS011;4248;48.196;10.924;2023-05-14T13:03:45;7.93;;;5.80;;
8421;SDS011;4248;48.196;10.924;2023-05-14T13:06:11;7.70;;;5.80;;
8421;SDS011;4248;48.196;10.924;2023-05-14T13:08:36;7.93;;;5.63;;
8421;SDS011;4248;48.196;10.924;2023-05-14T13:11:02;7.47;;;5.53;;
8421;SDS011;4248;48.196;10.924;2023-05-14T13:13:28;11.10;;;4.90;;
8421;SDS011;4248;48.196;10.924;2023-05-14T13:15:53;10.13;;;6.03;;
8421;SDS011;4248;48.196;10.924;2023-05-14T13:18:19;10.80;;;5.63;;
8421;SDS011;4248;48.196;10.924;2023-05-14T13:20:45;10.03;;;5.83;;
8421;SDS011;4248;48.196;10.924;2023-05-14T13:23:11;8.43;;;6.07;;
8421;SDS011;4248;48.196;10.924;2023-05-14T13:25:37;6.67;;;5.40;;
8421;SDS011;4248;48.196;10.924;2023-05-14T13:28:03;7.90;;;5.10;;
8421;SDS011;4248;48.196;10.924;2023-05-14T13:30:29;9.67;;;5.70;;
8421;SDS011;4248;48.196;10.924;2023-05-14T13:32:55;7.60;;;5.20;;
8421;SDS011;4248;48.196;10.924;2023-05-14T13:35:22;9.53;;;5.23;;
8421;SDS011;4248;48.196;10.924;2023-05-14T13:37:47;12.00;;;5.37;;
8421;SDS011;4248;48.196;10.924;2023-05-14T13:40:13;6.60;;;5.00;;
8421;SDS011;4248;48.196;10.924;2023-05-14T13:42:38;7.80;;;5.60;;
8421;SDS011;4248;48.196;10.924;2023-05-14T13:45:04;9.20;;;5.90;;
8421;SDS011;4248;48.196;10.924;2023-05-14T13:47:30;7.27;;;5.50;;
8421;SDS011;4248;48.196;10.924;2023-05-14T13:49:56;7.00;;;5.30;;
8421;SDS011;4248;48.196;10.924;2023-05-14T13:52:22;8.90;;;5.70;;
8421;SDS011;4248;48.196;10.924;2023-05-14T13:54:48;11.07;;;5.90;;
8421;SDS011;4248;48.196;10.924;2023-05-14T13:57:13;7.97;;;5.40;;
8421;SDS011;4248;48.196;10.924;2023-05-14T13:59:39;6.70;;;5.17;;
8421;SDS011;4248;48.196;10.924;2023-05-14T14:02:05;5.60;;;4.10;;
8421;SDS011;4248;48.196;10.924;2023-05-14T14:04:31;5.30;;;3.83;;
8421;SDS011;4248;48.196;10.924;2023-05-14T14:06:57;6.37;;;4.50;;
8421;SDS011;4248;48.196;10.924;2023-05-14T14:09:23;7.80;;;4.47;;
8421;SDS011;4248;48.196;10.924;2023-05-14T14:11:49;5.50;;;4.00;;
8421;SDS011;4248;48.196;10.924;2023-05-14T14:14:15;5.30;;;3.80;;
8421;SDS011;4248;48.196;10.924;2023-05-14T14:16:41;7.03;;;4.17;;
8421;SDS011;4248;48.196;10.924;2023-05-14T14:19:06;5.40;;;3.90;;
8421;SDS011;4248;48.196;10.924;2023-05-14T14:21:33;5.13;;;3.47;;
8421;SDS011;4248;48.196;10.924;2023-05-14T14:23:59;6.20;;;3.60;;
8421;SDS011;4248;48.196;10.924;2023-05-14T14:26:25;9.47;;;3.37;;
8421;SDS011;4248;48.196;10.924;2023-05-14T14:28:52;8.80;;;4.97;;
8421;SDS011;4248;48.196;10.924;2023-05-14T14:31:18;5.70;;;3.90;;
8421;SDS011;4248;48.196;10.924;2023-05-14T14:33:45;5.53;;;3.90;;
8421;SDS011;4248;48.196;10.924;2023-05-14T14:36:11;6.20;;;3.60;;
8421;SDS011;4248;48.196;10.924;2023-05-14T14:38:36;5.40;;;3.63;;
8421;SDS011;4248;48.196;10.924;2023-05-14T14:41:03;4.33;;;2.97;;
8421;SDS011;4248;48.196;10.924;2023-05-14T14:43:32;5.90;;;3.50;;
8421;SDS011;4248;48.196;10.924;2023-05-14T14:45:57;5.00;;;3.80;;
8421;SDS011;4248;48.196;10.924;2023-05-14T14:48:24;8.70;;;3.73;;
8421;SDS011;4248;48.196;10.924;2023-05-14T14:51:04;4.90;;;3.50;;
8421;SDS011;4248;48.196;10.924;2023-05-14T14:53:30;5.30;;;3.50;;
8421;SDS011;4248;48.196;10.924;2023-05-14T14:55:56;5.43;;;3.63;;
8421;SDS011;4248;48.196;10.924;2023-05-14T14:58:22;4.13;;;2.90;;
8421;SDS011;4248;48.196;10.924;2023-05-14T15:00:50;6.43;;;3.07;;